createdAt,value
2023-07-02T00:00:56.315Z,13.18
2023-07-02T00:06:20.511Z,10.15
2023-07-02T00:11:25.009Z,11.48
2023-07-02T00:16:30.911Z,11.18
2023-07-02T00:21:35.578Z,11.30
2023-07-02T00:26:41.605Z,12.00
2023-07-02T00:31:50.657Z,10.88
2023-07-02T00:36:55.149Z,9.95
2023-07-02T00:42:04.401Z,10.70
2023-07-02T00:47:10.784Z,10.63
2023-07-02T00:52:15.638Z,11.63
2023-07-02T00:57:20.474Z,10.88
2023-07-02T01:02:31.395Z,11.07
2023-07-02T01:07:36.183Z,11.88
2023-07-02T01:12:42.305Z,11.98
2023-07-02T01:17:48.549Z,12.93
2023-07-02T01:22:54.718Z,12.38
2023-07-02T01:28:00.013Z,13.65
2023-07-02T01:33:04.635Z,14.02
2023-07-02T01:38:10.322Z,14.07
2023-07-02T01:43:15.894Z,14.43
2023-07-02T01:48:20.353Z,14.88
2023-07-02T01:53:27.196Z,15.32
2023-07-02T01:58:31.502Z,16.70
2023-07-02T02:03:36.486Z,15.98
2023-07-02T02:08:42.427Z,15.98
2023-07-02T02:13:50.140Z,17.02
2023-07-02T02:18:54.655Z,17.30
2023-07-02T02:24:00.692Z,20.75
2023-07-02T02:29:05.575Z,19.65
2023-07-02T02:34:10.349Z,19.33
2023-07-02T02:39:16.534Z,17.80
2023-07-02T02:44:21.831Z,16.42
2023-07-02T02:49:26.137Z,16.23
2023-07-02T02:54:32.020Z,16.20
2023-07-02T02:59:36.671Z,15.82
2023-07-02T03:04:42.731Z,15.13
2023-07-02T03:09:48.765Z,14.95
2023-07-02T03:14:55.805Z,14.95
2023-07-02T03:20:00.414Z,13.65
2023-07-02T03:25:06.921Z,14.50
2023-07-02T03:30:11.602Z,12.43
2023-07-02T03:35:17.109Z,13.73
2023-07-02T03:40:23.056Z,12.15
2023-07-02T03:45:27.191Z,12.52
2023-07-02T03:50:31.361Z,11.25
2023-07-02T03:55:36.941Z,11.07
2023-07-02T04:00:43.079Z,11.32
2023-07-02T04:05:52.095Z,9.95
2023-07-02T04:16:03.429Z,8.90
2023-07-02T04:21:07.635Z,8.63
2023-07-02T04:26:45.325Z,8.48
2023-07-02T04:31:37.513Z,8.65
2023-07-02T04:36:41.723Z,7.78
2023-07-02T04:41:47.475Z,9.00
2023-07-02T04:46:51.763Z,8.10
2023-07-02T04:51:56.443Z,8.75
2023-07-02T04:57:02.670Z,9.90
2023-07-02T05:02:07.454Z,7.70
2023-07-02T05:07:11.851Z,7.00
2023-07-02T05:12:17.637Z,8.10
2023-07-02T05:17:21.893Z,8.10
2023-07-02T05:22:26.128Z,7.70
2023-07-02T05:27:31.678Z,7.93
2023-07-02T05:32:40.845Z,8.18
2023-07-02T05:37:46.854Z,7.53
2023-07-02T05:42:52.471Z,6.20
2023-07-02T05:47:56.909Z,5.90
2023-07-02T05:53:01.232Z,6.25
2023-07-02T05:58:07.562Z,5.53
2023-07-02T06:03:11.964Z,5.60
2023-07-02T06:08:16.411Z,5.80
2023-07-02T06:13:22.676Z,5.45
2023-07-02T06:18:27.100Z,5.43
2023-07-02T06:23:32.597Z,5.85
2023-07-02T06:28:38.818Z,5.15
2023-07-02T06:33:43.448Z,5.38
2023-07-02T06:38:47.978Z,4.78
2023-07-02T06:43:54.607Z,4.85
2023-07-02T06:48:59.115Z,4.18
2023-07-02T06:54:03.394Z,4.13
2023-07-02T06:59:09.026Z,4.60
2023-07-02T07:04:13.340Z,3.63
2023-07-02T07:09:19.394Z,3.03
2023-07-02T07:14:25.408Z,3.22
2023-07-02T07:19:30.228Z,3.38
2023-07-02T07:24:34.752Z,3.15
2023-07-02T07:29:40.563Z,2.90
2023-07-02T07:34:44.885Z,3.33
2023-07-02T07:39:49.402Z,2.83
2023-07-02T07:44:55.265Z,3.35
2023-07-02T07:49:59.761Z,3.42
2023-07-02T07:55:04.246Z,3.13
2023-07-02T08:00:12.361Z,3.67
2023-07-02T08:05:23.723Z,3.20
2023-07-02T08:10:29.227Z,3.28
2023-07-02T08:15:35.270Z,4.28
2023-07-02T08:20:39.802Z,4.72
2023-07-02T08:25:44.388Z,6.32
2023-07-02T08:30:50.686Z,6.38
2023-07-02T08:35:55.567Z,8.65
2023-07-02T08:41:00.588Z,10.00
2023-07-02T08:46:08.302Z,11.43
2023-07-02T08:51:12.842Z,5.82
2023-07-02T08:56:17.249Z,5.05
2023-07-02T09:01:22.991Z,5.00
2023-07-02T09:06:27.469Z,4.57
2023-07-02T09:11:31.899Z,4.32
2023-07-02T09:16:39.207Z,4.57
2023-07-02T09:21:47.194Z,4.97
2023-07-02T09:26:52.876Z,6.65
2023-07-02T09:32:09.665Z,4.90
2023-07-02T09:37:15.288Z,5.30
2023-07-02T09:42:21.634Z,5.50
2023-07-02T09:47:29.716Z,6.03
2023-07-02T09:52:36.228Z,6.05
2023-07-02T09:57:42.017Z,4.45
2023-07-02T10:02:52.446Z,4.00
2023-07-02T10:07:57.232Z,5.03
2023-07-02T10:13:01.792Z,5.20
2023-07-02T10:18:08.062Z,4.45
2023-07-02T10:23:12.740Z,4.95
2023-07-02T10:28:19.396Z,4.55
2023-07-02T10:33:25.950Z,5.40
2023-07-02T10:38:30.335Z,3.80
2023-07-02T10:43:34.801Z,3.40
2023-07-02T10:48:43.156Z,3.35
2023-07-02T10:53:50.825Z,3.42
2023-07-02T10:58:55.260Z,3.05
2023-07-02T11:04:02.508Z,4.00
2023-07-02T11:09:18.912Z,3.00
2023-07-02T11:14:30.757Z,2.50
2023-07-02T11:19:37.294Z,2.90
2023-07-02T11:24:41.778Z,2.40
2023-07-02T11:29:46.389Z,5.85
2023-07-02T11:34:57.801Z,2.83
2023-07-02T11:40:02.387Z,5.57
2023-07-02T11:45:07.927Z,2.80
2023-07-02T11:50:25.328Z,2.97
2023-07-02T11:55:31.068Z,3.00
2023-07-02T12:00:35.324Z,2.22
2023-07-02T12:05:41.706Z,2.30
2023-07-02T12:10:46.306Z,1.60
2023-07-02T12:15:52.566Z,0.93
2023-07-02T12:20:58.674Z,1.08
2023-07-02T12:26:03.116Z,1.20
2023-07-02T12:31:07.885Z,1.42
2023-07-02T12:36:15.217Z,1.23
2023-07-02T12:41:20.381Z,1.42
2023-07-02T12:46:25.387Z,1.45
2023-07-02T12:51:31.197Z,1.90
2023-07-02T12:56:35.505Z,1.80
2023-07-02T13:01:39.780Z,1.58
2023-07-02T13:06:46.881Z,2.17
2023-07-02T13:11:51.382Z,1.42
2023-07-02T13:16:55.797Z,2.75
2023-07-02T13:22:01.462Z,5.20
2023-07-02T13:27:09.384Z,2.75
2023-07-02T13:32:13.853Z,4.30
2023-07-02T13:37:19.896Z,5.25
2023-07-02T13:42:24.842Z,3.00
2023-07-02T13:47:29.958Z,2.05
2023-07-02T13:52:35.860Z,2.25
2023-07-02T13:57:40.867Z,2.60
2023-07-02T14:02:46.713Z,2.17
2023-07-02T14:07:51.758Z,2.85
2023-07-02T14:12:56.041Z,2.20
2023-07-02T14:18:02.156Z,2.28
2023-07-02T14:23:08.441Z,1.83
2023-07-02T14:28:12.768Z,1.75
2023-07-02T14:33:18.704Z,2.17
2023-07-02T14:38:23.666Z,1.95
2023-07-02T14:43:30.559Z,1.45
2023-07-02T14:48:36.718Z,2.10
2023-07-02T14:53:41.680Z,1.67
2023-07-02T14:58:46.148Z,1.25
2023-07-02T15:03:52.381Z,1.30
2023-07-02T15:08:56.900Z,1.38
2023-07-02T15:14:01.993Z,1.77
2023-07-02T15:19:08.166Z,2.00
2023-07-02T15:24:14.484Z,1.70
2023-07-02T15:29:19.060Z,1.60
2023-07-02T15:34:24.935Z,1.27
2023-07-02T15:39:34.130Z,1.50
2023-07-02T15:44:38.981Z,1.50
2023-07-02T15:49:44.791Z,1.40
2023-07-02T15:54:49.793Z,1.45
2023-07-02T15:59:55.151Z,1.00
2023-07-02T16:05:03.102Z,1.38
2023-07-02T16:10:08.654Z,2.00
2023-07-02T16:15:13.404Z,1.30
2023-07-02T16:20:19.474Z,1.70
2023-07-02T16:25:24.036Z,1.85
2023-07-02T16:30:28.532Z,1.40
2023-07-02T16:35:34.391Z,1.63
2023-07-02T16:40:39.012Z,2.30
2023-07-02T16:45:43.598Z,2.22
2023-07-02T16:50:49.599Z,1.52
2023-07-02T16:55:54.034Z,2.50
2023-07-02T17:01:03.919Z,2.05
2023-07-02T17:06:10.005Z,1.83
2023-07-02T17:11:19.595Z,2.13
2023-07-02T17:16:24.351Z,2.17
2023-07-02T17:21:29.979Z,2.50
2023-07-02T17:26:34.478Z,1.83
2023-07-02T17:31:38.905Z,2.20
2023-07-02T17:36:45.571Z,3.08
2023-07-02T17:41:51.597Z,2.70
2023-07-02T17:46:57.356Z,2.72
2023-07-02T17:52:03.227Z,3.00
2023-07-02T17:57:09.673Z,2.72
2023-07-02T18:02:14.833Z,2.65
2023-07-02T18:07:22.779Z,2.60
2023-07-02T18:12:29.437Z,2.92
2023-07-02T18:17:34.594Z,2.42
2023-07-02T18:22:40.435Z,2.72
2023-07-02T18:27:44.721Z,2.40
2023-07-02T18:32:49.069Z,2.35
2023-07-02T18:37:54.827Z,2.45
2023-07-02T18:42:59.362Z,2.00
2023-07-02T18:48:04.178Z,3.05
2023-07-02T18:53:10.134Z,2.60
2023-07-02T18:58:14.660Z,2.70
2023-07-02T19:03:19.861Z,2.90
2023-07-02T19:08:25.595Z,2.78
2023-07-02T19:13:30.329Z,3.47
2023-07-02T19:18:34.882Z,3.08
2023-07-02T19:23:42.405Z,2.70
2023-07-02T19:28:46.818Z,3.25
2023-07-02T19:33:51.662Z,3.17
2023-07-02T19:38:58.094Z,3.30
2023-07-02T19:44:02.718Z,3.55
2023-07-02T19:49:07.288Z,3.60
2023-07-02T19:54:12.924Z,3.30
2023-07-02T19:59:17.245Z,3.20
2023-07-02T20:04:23.551Z,3.50
2023-07-02T20:09:29.926Z,3.72
2023-07-02T20:14:35.770Z,4.28
2023-07-02T20:19:40.595Z,4.03
2023-07-02T20:24:46.693Z,3.30
2023-07-02T20:29:52.562Z,4.70
2023-07-02T20:34:56.824Z,3.83
2023-07-02T20:40:12.055Z,4.03
2023-07-02T20:45:18.725Z,3.95
2023-07-02T20:50:23.029Z,3.67
2023-07-02T20:55:28.697Z,4.13
2023-07-02T21:00:33.242Z,3.90
2023-07-02T21:05:38.804Z,4.50
2023-07-02T21:10:44.599Z,4.07
2023-07-02T21:15:56.248Z,5.20
2023-07-02T21:21:00.922Z,4.00
2023-07-02T21:26:07.556Z,4.97
2023-07-02T21:31:15.226Z,4.28
2023-07-02T21:36:19.587Z,4.57
2023-07-02T21:41:26.560Z,4.18
2023-07-02T21:46:31.462Z,4.43
2023-07-02T21:51:35.666Z,4.82
2023-07-02T21:56:41.369Z,3.95
2023-07-02T22:01:46.069Z,3.97
2023-07-02T22:06:50.536Z,3.45
2023-07-02T22:11:56.467Z,4.43
2023-07-02T22:17:08.935Z,4.85
2023-07-02T22:22:13.684Z,6.22
2023-07-02T22:27:19.513Z,5.13
2023-07-02T22:32:24.126Z,5.60
2023-07-02T22:37:29.881Z,6.03
2023-07-02T22:42:35.478Z,5.72
2023-07-02T22:47:41.574Z,5.85
2023-07-02T22:52:46.898Z,5.85
2023-07-02T22:57:52.671Z,5.40
2023-07-02T23:02:57.475Z,5.78
2023-07-02T23:08:01.992Z,6.68
2023-07-02T23:13:07.713Z,6.68
2023-07-02T23:18:11.918Z,5.85
2023-07-02T23:23:18.831Z,5.55
2023-07-02T23:28:24.748Z,5.55
2023-07-02T23:33:28.942Z,5.53
2023-07-02T23:38:33.676Z,5.20
2023-07-02T23:43:39.487Z,5.22
2023-07-02T23:48:43.827Z,5.75
2023-07-02T23:53:48.201Z,4.93
2023-07-02T23:58:54.389Z,4.80
